createdAt,value
2023-05-05T00:00:21.632Z,5.50
2023-05-05T00:03:10.103Z,4.80
2023-05-05T00:05:38.655Z,5.00
2023-05-05T00:08:07.885Z,5.30
2023-05-05T00:10:36.826Z,5.30
2023-05-05T00:13:05.217Z,5.10
2023-05-05T00:15:33.592Z,5.10
2023-05-05T00:18:02.103Z,5.40
2023-05-05T00:20:30.692Z,5.70
2023-05-05T00:22:59.116Z,5.00
2023-05-05T00:25:27.645Z,5.00
2023-05-05T00:27:56.664Z,5.00
2023-05-05T00:30:25.283Z,5.10
2023-05-05T00:32:54.843Z,5.00
2023-05-05T00:35:23.489Z,5.50
2023-05-05T00:37:51.936Z,4.80
2023-05-05T00:40:20.299Z,5.10
2023-05-05T00:42:52.538Z,4.80
2023-05-05T00:45:21.241Z,5.50
2023-05-05T00:47:53.833Z,5.30
2023-05-05T00:50:24.376Z,5.10
2023-05-05T00:53:15.999Z,5.90
2023-05-05T00:55:44.418Z,5.10
2023-05-05T00:58:13.795Z,4.50
2023-05-05T01:00:42.118Z,5.30
2023-05-05T01:03:13.211Z,6.00
2023-05-05T01:06:02.966Z,5.80
2023-05-05T01:08:42.282Z,6.00
2023-05-05T01:11:35.246Z,6.30
2023-05-05T01:14:26.635Z,5.70
2023-05-05T01:17:10.571Z,6.20
2023-05-05T01:20:10.747Z,5.80
2023-05-05T01:22:44.184Z,6.20
2023-05-05T01:25:34.104Z,5.40
2023-05-05T01:28:39.722Z,5.40
2023-05-05T01:31:32.172Z,5.40
2023-05-05T01:34:06.490Z,5.10
2023-05-05T01:36:43.064Z,4.90
2023-05-05T01:39:16.730Z,4.80
2023-05-05T01:41:51.398Z,5.50
2023-05-05T01:44:20.597Z,5.00
2023-05-05T01:46:57.523Z,5.60
2023-05-05T01:49:27.561Z,5.60
2023-05-05T01:51:56.624Z,5.00
2023-05-05T01:54:27.275Z,5.80
2023-05-05T01:56:57.757Z,5.60
2023-05-05T01:59:27.959Z,5.90
2023-05-05T02:01:58.548Z,5.70
2023-05-05T02:04:29.966Z,5.70
2023-05-05T02:06:59.708Z,5.40
2023-05-05T02:09:30.357Z,5.40
2023-05-05T02:12:00.557Z,5.30
2023-05-05T02:14:30.676Z,5.30
2023-05-05T02:16:59.683Z,5.20
2023-05-05T02:19:33.700Z,5.30
2023-05-05T02:22:02.849Z,5.70
2023-05-05T02:24:31.252Z,5.30
2023-05-05T02:27:02.375Z,5.50
2023-05-05T02:29:51.008Z,4.40
2023-05-05T02:32:25.123Z,5.00
2023-05-05T02:34:55.669Z,5.60
2023-05-05T02:37:27.618Z,5.10
2023-05-05T02:40:06.336Z,5.40
2023-05-05T02:42:41.744Z,5.20
2023-05-05T02:45:14.552Z,5.80
2023-05-05T02:47:45.161Z,5.20
2023-05-05T02:50:13.734Z,5.40
2023-05-05T02:52:46.783Z,6.20
2023-05-05T02:55:16.179Z,5.30
2023-05-05T02:58:05.194Z,4.80
2023-05-05T03:00:39.799Z,5.10
2023-05-05T03:03:31.114Z,13.00
2023-05-05T03:06:14.190Z,6.20
2023-05-05T03:08:48.752Z,5.30
2023-05-05T03:11:48.164Z,5.50
2023-05-05T03:14:19.962Z,4.70
2023-05-05T03:16:50.168Z,5.40
2023-05-05T03:19:20.524Z,5.40
2023-05-05T03:21:52.726Z,4.70
2023-05-05T03:24:21.609Z,4.50
2023-05-05T03:27:10.248Z,4.60
2023-05-05T03:29:40.212Z,4.70
2023-05-05T03:32:12.188Z,5.40
2023-05-05T03:34:41.003Z,4.60
2023-05-05T03:37:09.418Z,4.80
2023-05-05T03:39:38.081Z,4.60
2023-05-05T03:42:06.889Z,4.40
2023-05-05T03:44:36.040Z,5.50
2023-05-05T03:47:04.541Z,4.30
2023-05-05T03:49:34.337Z,5.30
2023-05-05T03:52:02.823Z,4.40
2023-05-05T03:54:31.765Z,4.40
2023-05-05T03:57:00.482Z,4.20
2023-05-05T03:59:28.873Z,4.60
2023-05-05T04:01:57.948Z,5.10
2023-05-05T04:04:26.491Z,4.90
2023-05-05T04:06:55.245Z,4.40
2023-05-05T04:09:26.722Z,4.40
2023-05-05T04:11:55.402Z,4.70
2023-05-05T04:14:24.009Z,5.30
2023-05-05T04:16:53.371Z,5.10
2023-05-05T04:19:21.832Z,7.30
2023-05-05T04:21:51.362Z,4.70
2023-05-05T04:24:24.947Z,4.20
2023-05-05T04:26:54.876Z,4.30
2023-05-05T04:29:23.426Z,4.70
2023-05-05T04:31:51.913Z,6.30
2023-05-05T04:34:20.445Z,4.40
2023-05-05T04:36:48.995Z,5.40
2023-05-05T04:39:17.570Z,5.40
2023-05-05T04:41:46.036Z,4.60
2023-05-05T04:44:14.453Z,5.10
2023-05-05T04:46:43.099Z,4.10
2023-05-05T04:49:11.548Z,4.10
2023-05-05T04:51:42.846Z,3.60
2023-05-05T04:54:11.296Z,4.10
2023-05-05T04:56:39.648Z,4.00
2023-05-05T04:59:08.023Z,5.00
2023-05-05T05:01:38.587Z,4.50
2023-05-05T05:04:07.649Z,3.80
2023-05-05T05:06:39.498Z,3.90
2023-05-05T05:09:07.866Z,3.90
2023-05-05T05:11:36.324Z,4.10
2023-05-05T05:14:04.768Z,4.80
2023-05-05T05:16:33.193Z,5.60
2023-05-05T05:19:02.008Z,5.70
2023-05-05T05:21:31.926Z,4.90
2023-05-05T05:24:00.990Z,4.90
2023-05-05T05:26:29.624Z,5.80
2023-05-05T05:28:58.006Z,6.10
2023-05-05T05:31:26.794Z,5.30
2023-05-05T05:33:56.500Z,5.60
2023-05-05T05:36:25.152Z,4.60
2023-05-05T05:38:53.858Z,4.60
2023-05-05T05:41:22.395Z,6.20
2023-05-05T05:43:50.775Z,4.90
2023-05-05T05:46:19.723Z,4.70
2023-05-05T05:48:48.486Z,5.10
2023-05-05T05:51:16.921Z,4.70
2023-05-05T05:53:45.444Z,4.40
2023-05-05T05:56:15.066Z,4.80
2023-05-05T05:58:43.664Z,5.20
2023-05-05T06:01:12.646Z,6.10
2023-05-05T06:03:41.065Z,5.60
2023-05-05T06:06:09.731Z,5.50
2023-05-05T06:08:38.459Z,5.80
2023-05-05T06:11:06.865Z,6.30
2023-05-05T06:13:35.520Z,5.70
2023-05-05T06:16:04.188Z,6.10
2023-05-05T06:18:32.796Z,6.80
2023-05-05T06:21:02.232Z,5.80
2023-05-05T06:23:30.767Z,7.00
2023-05-05T06:26:03.612Z,5.60
2023-05-05T06:28:32.078Z,6.10
2023-05-05T06:31:00.490Z,6.10
2023-05-05T06:33:28.915Z,5.70
2023-05-05T06:35:57.263Z,5.10
2023-05-05T06:38:25.682Z,6.40
2023-05-05T06:40:53.969Z,6.00
2023-05-05T06:43:24.203Z,6.30
2023-05-05T06:45:55.915Z,7.50
2023-05-05T06:48:24.454Z,6.50
2023-05-05T06:50:52.828Z,6.60
2023-05-05T06:53:21.405Z,7.70
2023-05-05T06:55:49.703Z,7.50
2023-05-05T06:58:18.019Z,7.30
2023-05-05T07:00:46.467Z,7.70
2023-05-05T07:03:15.070Z,6.30
2023-05-05T07:05:43.601Z,7.80
2023-05-05T07:08:11.974Z,8.90
2023-05-05T07:10:40.579Z,9.00
2023-05-05T07:13:09.032Z,8.00
2023-05-05T07:15:37.890Z,8.10
2023-05-05T07:18:06.705Z,6.90
2023-05-05T07:20:35.382Z,9.90
2023-05-05T07:23:03.824Z,8.50
2023-05-05T07:25:32.338Z,7.30
2023-05-05T07:28:01.209Z,9.50
2023-05-05T07:30:29.752Z,8.80
2023-05-05T07:32:58.527Z,9.10
2023-05-05T07:35:32.134Z,11.00
2023-05-05T07:38:04.063Z,10.50
2023-05-05T07:40:34.862Z,7.90
2023-05-05T07:43:03.425Z,7.60
2023-05-05T07:45:32.015Z,5.80
2023-05-05T07:48:00.477Z,6.40
2023-05-05T07:50:29.089Z,6.20
2023-05-05T07:53:10.837Z,7.70
2023-05-05T07:55:46.563Z,6.70
2023-05-05T07:58:15.017Z,6.30
2023-05-05T08:00:44.108Z,5.60
2023-05-05T08:03:12.681Z,5.60
2023-05-05T08:05:42.225Z,6.80
2023-05-05T08:08:11.322Z,6.40
2023-05-05T08:10:42.531Z,7.00
2023-05-05T08:13:11.160Z,5.80
2023-05-05T08:15:39.737Z,5.80
2023-05-05T08:18:08.233Z,5.50
2023-05-05T08:20:36.832Z,6.30
2023-05-05T08:23:05.570Z,5.90
2023-05-05T08:25:33.892Z,5.30
2023-05-05T08:28:02.448Z,5.10
2023-05-05T08:31:04.130Z,5.20
2023-05-05T08:33:33.143Z,5.60
2023-05-05T08:36:01.620Z,5.20
2023-05-05T08:38:30.405Z,7.00
2023-05-05T08:40:58.792Z,5.70
2023-05-05T08:43:27.118Z,4.70
2023-05-05T08:46:00.070Z,4.70
2023-05-05T08:48:30.569Z,6.10
2023-05-05T08:51:01.919Z,3.80
2023-05-05T08:53:49.132Z,3.50
2023-05-05T08:56:20.483Z,4.20
2023-05-05T08:58:51.168Z,5.00
2023-05-05T09:01:20.284Z,4.80
2023-05-05T09:03:48.755Z,5.20
2023-05-05T09:06:17.183Z,4.00
2023-05-05T09:08:45.874Z,5.80
2023-05-05T09:11:14.582Z,5.90
2023-05-05T09:13:43.748Z,4.10
2023-05-05T09:16:12.126Z,3.50
2023-05-05T09:18:42.769Z,6.90
2023-05-05T09:21:25.002Z,4.50
2023-05-05T09:24:08.883Z,3.20
2023-05-05T09:26:41.604Z,3.70
2023-05-05T09:29:10.022Z,5.20
2023-05-05T09:31:38.411Z,4.10
2023-05-05T09:34:17.321Z,4.00
2023-05-05T09:36:48.116Z,3.30
2023-05-05T09:39:20.452Z,3.80
2023-05-05T09:41:49.258Z,2.70
2023-05-05T09:44:40.468Z,3.30
2023-05-05T09:47:22.159Z,3.10
2023-05-05T09:50:05.730Z,2.80
2023-05-05T09:52:34.245Z,4.60
2023-05-05T09:55:02.645Z,3.60
2023-05-05T09:57:34.002Z,5.30
2023-05-05T10:00:04.485Z,4.70
2023-05-05T10:02:38.894Z,3.90
2023-05-05T10:05:11.204Z,5.00
2023-05-05T10:07:41.495Z,2.30
2023-05-05T10:10:15.669Z,2.70
2023-05-05T10:12:47.786Z,3.10
2023-05-05T10:15:16.656Z,3.00
2023-05-05T10:20:24.992Z,2.50
2023-05-05T10:22:53.850Z,3.00
2023-05-05T10:25:49.454Z,2.90
2023-05-05T10:28:44.419Z,2.60
2023-05-05T10:31:25.866Z,2.40
2023-05-05T10:34:24.342Z,2.50
2023-05-05T10:36:55.373Z,2.70
2023-05-05T10:39:25.266Z,3.40
2023-05-05T10:41:53.944Z,3.30
2023-05-05T10:44:23.661Z,4.20
2023-05-05T10:46:52.266Z,2.80
2023-05-05T10:49:39.343Z,2.80
2023-05-05T10:52:43.306Z,3.00
2023-05-05T10:55:38.791Z,2.90
2023-05-05T10:58:07.210Z,2.80
2023-05-05T11:00:38.669Z,3.00
2023-05-05T11:03:20.351Z,3.50
2023-05-05T11:06:11.516Z,4.90
2023-05-05T11:08:40.873Z,3.20
2023-05-05T11:11:13.095Z,2.90
2023-05-05T11:13:42.349Z,3.40
2023-05-05T11:16:48.448Z,3.40
2023-05-05T11:19:49.483Z,3.00
2023-05-05T11:22:17.996Z,3.30
2023-05-05T11:24:47.589Z,2.80
2023-05-05T11:27:16.161Z,3.70
2023-05-05T11:30:10.027Z,3.60
2023-05-05T11:32:38.700Z,3.60
2023-05-05T11:35:08.241Z,3.30
2023-05-05T11:37:38.699Z,3.30
2023-05-05T11:40:34.262Z,3.50
2023-05-05T11:43:07.388Z,3.40
2023-05-05T11:45:36.108Z,3.90
2023-05-05T11:48:29.322Z,5.10
2023-05-05T11:50:58.297Z,4.50
2023-05-05T11:53:27.742Z,5.00
2023-05-05T11:56:09.477Z,5.50
2023-05-05T11:58:38.552Z,4.40
2023-05-05T12:01:08.462Z,4.70
2023-05-05T12:03:38.107Z,4.60
2023-05-05T12:06:07.833Z,5.10
2023-05-05T12:08:40.409Z,4.90
2023-05-05T12:11:10.905Z,4.70
2023-05-05T12:13:39.389Z,5.10
2023-05-05T12:16:14.752Z,4.80
2023-05-05T12:18:44.120Z,4.60
2023-05-05T12:21:19.607Z,4.40
2023-05-05T12:23:48.215Z,5.10
2023-05-05T12:26:28.175Z,3.80
2023-05-05T12:28:58.299Z,3.60
2023-05-05T12:31:41.660Z,3.60
2023-05-05T12:34:12.181Z,4.10
2023-05-05T12:36:41.175Z,3.80
2023-05-05T12:39:09.610Z,3.70
2023-05-05T12:41:38.039Z,4.00
2023-05-05T12:44:06.869Z,4.20
2023-05-05T12:46:49.338Z,4.40
2023-05-05T12:49:17.836Z,3.70
2023-05-05T12:51:56.767Z,3.80
2023-05-05T12:54:25.371Z,4.90
2023-05-05T12:56:53.781Z,3.70
2023-05-05T12:59:22.129Z,3.60
2023-05-05T13:01:55.590Z,3.60
2023-05-05T13:04:26.079Z,4.30
2023-05-05T13:07:14.901Z,3.70
2023-05-05T13:09:44.192Z,4.30
2023-05-05T13:12:12.610Z,4.10
2023-05-05T13:14:42.080Z,3.40
2023-05-05T13:17:11.821Z,4.10
2023-05-05T13:19:46.614Z,4.40
2023-05-05T13:22:15.397Z,4.10
2023-05-05T13:24:51.883Z,4.10
2023-05-05T13:27:53.752Z,9.50
2023-05-05T13:30:23.354Z,5.90
2023-05-05T13:32:51.775Z,5.80
2023-05-05T13:35:20.278Z,5.70
2023-05-05T13:37:48.711Z,5.90
2023-05-05T13:40:17.114Z,6.10
2023-05-05T13:42:45.790Z,4.50
2023-05-05T13:45:17.600Z,5.40
2023-05-05T13:47:45.990Z,5.90
2023-05-05T13:50:14.479Z,4.30
2023-05-05T13:52:42.817Z,4.20
2023-05-05T13:55:11.297Z,4.50
2023-05-05T13:57:39.709Z,4.40
2023-05-05T14:00:09.242Z,5.20
2023-05-05T14:02:37.629Z,4.70
2023-05-05T14:05:06.827Z,4.50
2023-05-05T14:07:35.404Z,4.50
2023-05-05T14:10:03.948Z,4.40
2023-05-05T14:12:32.753Z,5.10
2023-05-05T14:15:01.220Z,5.40
2023-05-05T14:17:29.816Z,5.70
2023-05-05T14:19:58.491Z,5.50
2023-05-05T14:22:26.841Z,5.60
2023-05-05T14:24:55.307Z,5.80
2023-05-05T14:27:23.860Z,5.20
2023-05-05T14:29:52.224Z,4.60
2023-05-05T14:32:20.754Z,3.90
2023-05-05T14:34:50.447Z,4.00
2023-05-05T14:37:18.983Z,3.80
2023-05-05T14:39:47.407Z,3.90
2023-05-05T14:42:16.077Z,4.10
2023-05-05T14:44:44.390Z,4.00
2023-05-05T14:47:12.793Z,4.40
2023-05-05T14:49:41.330Z,4.30
2023-05-05T14:52:09.761Z,5.00
2023-05-05T14:54:38.158Z,4.80
2023-05-05T14:57:07.059Z,5.40
2023-05-05T14:59:35.458Z,5.00
2023-05-05T15:02:04.210Z,5.00
2023-05-05T15:04:32.626Z,5.80
2023-05-05T15:07:01.012Z,4.20
2023-05-05T15:09:29.402Z,4.20
2023-05-05T15:11:57.770Z,5.40
2023-05-05T15:14:26.803Z,5.80
2023-05-05T15:16:55.159Z,5.70
2023-05-05T15:19:23.508Z,5.50
2023-05-05T15:21:54.228Z,6.80
2023-05-05T15:24:22.735Z,4.60
2023-05-05T15:26:51.334Z,4.40
2023-05-05T15:29:19.733Z,5.60
2023-05-05T15:31:48.099Z,5.20
2023-05-05T15:34:16.518Z,5.50
2023-05-05T15:36:44.903Z,5.00
2023-05-05T15:39:13.251Z,4.70
2023-05-05T15:41:41.939Z,4.90
2023-05-05T15:44:12.384Z,5.00
2023-05-05T15:46:41.505Z,5.40
2023-05-05T15:49:10.043Z,4.50
2023-05-05T15:51:38.602Z,4.80
2023-05-05T15:54:07.014Z,5.80
2023-05-05T15:56:35.762Z,8.30
2023-05-05T15:59:04.378Z,8.40
2023-05-05T16:01:33.777Z,5.70
2023-05-05T16:04:03.713Z,5.70
2023-05-05T16:06:32.072Z,5.60
2023-05-05T16:09:00.639Z,4.80
2023-05-05T16:11:29.221Z,4.10
2023-05-05T16:13:57.620Z,4.40
2023-05-05T16:16:26.214Z,4.90
2023-05-05T16:18:54.657Z,4.50
2023-05-05T16:21:23.085Z,4.40
2023-05-05T16:23:51.665Z,5.50
2023-05-05T16:26:20.097Z,5.30
2023-05-05T16:28:48.859Z,5.20
2023-05-05T16:31:17.338Z,6.00
2023-05-05T16:33:46.002Z,10.40
2023-05-05T16:36:15.510Z,8.60
2023-05-05T16:38:44.260Z,6.30
2023-05-05T16:41:12.805Z,4.70
2023-05-05T16:43:41.250Z,4.70
2023-05-05T16:46:12.491Z,4.80
2023-05-05T16:48:41.313Z,5.00
2023-05-05T16:51:09.955Z,5.20
2023-05-05T16:53:38.512Z,5.60
2023-05-05T16:56:07.005Z,6.00
2023-05-05T16:58:35.378Z,7.20
2023-05-05T17:01:04.299Z,5.80
2023-05-05T17:03:32.782Z,6.90
2023-05-05T17:06:01.218Z,7.70
2023-05-05T17:08:29.639Z,7.60
2023-05-05T17:10:58.367Z,8.30
2023-05-05T17:13:29.373Z,7.00
2023-05-05T17:15:57.826Z,7.10
2023-05-05T17:18:26.452Z,5.90
2023-05-05T17:20:54.967Z,5.50
2023-05-05T17:23:23.489Z,5.90
2023-05-05T17:25:54.059Z,7.50
2023-05-05T17:28:22.648Z,6.60
2023-05-05T17:30:51.067Z,6.60
2023-05-05T17:33:21.642Z,5.30
2023-05-05T17:35:50.009Z,5.30
2023-05-05T17:38:18.342Z,6.20
2023-05-05T17:40:46.841Z,6.00
2023-05-05T17:43:15.282Z,6.10
2023-05-05T17:45:44.395Z,6.50
2023-05-05T17:48:12.830Z,5.90
2023-05-05T17:50:43.134Z,6.30
2023-05-05T17:53:12.093Z,6.60
2023-05-05T17:55:44.960Z,5.90
2023-05-05T17:58:13.863Z,6.30
2023-05-05T18:00:42.266Z,6.60
2023-05-05T18:03:10.986Z,6.60
2023-05-05T18:05:39.681Z,6.10
2023-05-05T18:08:08.143Z,5.20
2023-05-05T18:10:36.594Z,6.20
2023-05-05T18:13:08.197Z,5.80
2023-05-05T18:15:36.555Z,6.10
2023-05-05T18:18:05.243Z,7.00
2023-05-05T18:20:33.725Z,6.90
2023-05-05T18:23:02.224Z,7.70
2023-05-05T18:25:30.772Z,7.20
2023-05-05T18:27:59.552Z,6.70
2023-05-05T18:30:27.976Z,7.20
2023-05-05T18:32:56.747Z,6.40
2023-05-05T18:35:25.391Z,7.70
2023-05-05T18:37:55.215Z,6.60
2023-05-05T18:40:24.181Z,8.00
2023-05-05T18:42:52.636Z,7.40
2023-05-05T18:45:21.128Z,7.50
2023-05-05T18:47:50.177Z,7.90
2023-05-05T18:50:18.644Z,8.30
2023-05-05T18:52:47.031Z,7.40
2023-05-05T18:55:15.303Z,6.80
2023-05-05T18:57:43.652Z,7.50
2023-05-05T19:00:12.459Z,7.10
2023-05-05T19:02:40.865Z,7.10
2023-05-05T19:05:09.855Z,6.60
2023-05-05T19:07:38.606Z,8.00
2023-05-05T19:10:07.691Z,7.20
2023-05-05T19:12:36.109Z,7.80
2023-05-05T19:15:04.789Z,7.70
2023-05-05T19:17:33.157Z,8.70
2023-05-05T19:20:01.612Z,6.80
2023-05-05T19:22:30.006Z,6.80
2023-05-05T19:24:58.454Z,6.20
2023-05-05T19:27:26.900Z,6.90
2023-05-05T19:29:55.653Z,6.90
2023-05-05T19:32:24.120Z,8.50
2023-05-05T19:34:55.287Z,9.90
2023-05-05T19:37:23.749Z,7.40
2023-05-05T19:39:52.344Z,7.30
2023-05-05T19:42:20.930Z,8.10
2023-05-05T19:44:49.333Z,8.10
2023-05-05T19:47:18.194Z,8.40
2023-05-05T19:49:46.533Z,8.70
2023-05-05T19:52:15.022Z,9.30
2023-05-05T19:54:43.744Z,8.80
2023-05-05T19:57:12.215Z,9.50
2023-05-05T19:59:41.915Z,9.00
2023-05-05T20:02:11.711Z,9.40
2023-05-05T20:04:40.148Z,9.30
2023-05-05T20:07:08.789Z,9.20
2023-05-05T20:09:37.952Z,9.50
2023-05-05T20:12:06.691Z,10.20
2023-05-05T20:14:35.115Z,10.00
2023-05-05T20:17:03.615Z,10.20
2023-05-05T20:19:32.365Z,9.70
2023-05-05T20:22:00.846Z,9.80
2023-05-05T20:24:30.019Z,10.30
2023-05-05T20:26:58.401Z,10.10
2023-05-05T20:29:27.006Z,9.80
2023-05-05T20:31:55.450Z,10.20
2023-05-05T20:34:25.234Z,10.70
2023-05-05T20:36:54.564Z,10.90
2023-05-05T20:39:22.898Z,11.30
2023-05-05T20:41:51.426Z,11.60
2023-05-05T20:44:19.847Z,10.90
2023-05-05T20:46:48.372Z,10.40
2023-05-05T20:49:16.832Z,11.10
2023-05-05T20:51:45.273Z,10.40
2023-05-05T20:54:14.010Z,9.10
2023-05-05T20:56:42.347Z,9.80
2023-05-05T20:59:10.721Z,10.10
2023-05-05T21:01:39.127Z,10.30
2023-05-05T21:04:07.528Z,10.20
2023-05-05T21:06:36.141Z,11.20
2023-05-05T21:09:05.022Z,10.10
2023-05-05T21:11:33.397Z,10.30
2023-05-05T21:14:01.874Z,10.80
2023-05-05T21:16:30.334Z,10.90
2023-05-05T21:18:59.391Z,12.90
2023-05-05T21:21:27.798Z,10.20
2023-05-05T21:23:56.334Z,9.60
2023-05-05T21:26:27.858Z,9.90
2023-05-05T21:28:56.295Z,10.80
2023-05-05T21:31:24.723Z,10.10
2023-05-05T21:33:54.415Z,10.50
2023-05-05T21:36:22.798Z,10.10
2023-05-05T21:38:51.344Z,10.90
2023-05-05T21:41:19.848Z,9.90
2023-05-05T21:43:48.333Z,8.50
2023-05-05T21:46:19.739Z,9.20
2023-05-05T21:48:48.302Z,8.40
2023-05-05T21:51:16.733Z,8.30
2023-05-05T21:53:45.197Z,8.30
2023-05-05T21:56:13.650Z,7.70
2023-05-05T21:58:42.015Z,7.70
2023-05-05T22:01:10.900Z,7.20
2023-05-05T22:03:39.435Z,7.10
2023-05-05T22:06:07.919Z,7.30
2023-05-05T22:08:36.313Z,7.10
2023-05-05T22:11:04.739Z,6.30
2023-05-05T22:13:33.118Z,6.50
2023-05-05T22:16:01.512Z,5.90
2023-05-05T22:18:29.889Z,6.00
2023-05-05T22:20:58.309Z,6.00
2023-05-05T22:23:26.888Z,5.80
2023-05-05T22:25:55.533Z,6.10
2023-05-05T22:28:24.013Z,6.30
2023-05-05T22:30:52.442Z,5.90
2023-05-05T22:33:20.921Z,6.40
2023-05-05T22:35:49.316Z,6.00
2023-05-05T22:38:17.863Z,6.10
2023-05-05T22:40:46.647Z,6.00
2023-05-05T22:43:15.056Z,6.00
2023-05-05T22:45:44.186Z,5.50
2023-05-05T22:48:12.619Z,5.30
2023-05-05T22:50:41.568Z,5.30
2023-05-05T22:53:09.928Z,5.60
2023-05-05T22:55:38.351Z,5.40
2023-05-05T22:58:06.890Z,5.50
2023-05-05T23:00:35.312Z,5.80
2023-05-05T23:03:03.795Z,5.30
2023-05-05T23:05:32.198Z,5.60
2023-05-05T23:08:01.581Z,4.80
2023-05-05T23:10:30.765Z,4.70
2023-05-05T23:12:59.203Z,4.10
2023-05-05T23:15:27.641Z,4.60
2023-05-05T23:17:56.173Z,4.60
2023-05-05T23:20:24.671Z,4.60
2023-05-05T23:22:53.018Z,4.50
2023-05-05T23:25:21.350Z,4.70
2023-05-05T23:27:49.736Z,4.40
2023-05-05T23:30:19.008Z,4.00
2023-05-05T23:32:47.443Z,4.40
2023-05-05T23:35:15.880Z,4.00
2023-05-05T23:37:44.224Z,3.80
2023-05-05T23:40:12.713Z,3.90
2023-05-05T23:42:41.137Z,3.50
2023-05-05T23:45:13.250Z,4.00
2023-05-05T23:47:41.707Z,4.30
2023-05-05T23:50:10.225Z,4.30
2023-05-05T23:52:38.706Z,4.10
2023-05-05T23:55:07.864Z,4.40
2023-05-05T23:57:37.071Z,4.00
